createdAt,value
2023-04-20T00:01:11.518Z,15.60
2023-04-20T00:03:45.890Z,16.40
2023-04-20T00:06:22.171Z,13.50
2023-04-20T00:08:56.405Z,15.10
2023-04-20T00:11:30.507Z,14.50
2023-04-20T00:14:04.613Z,15.50
2023-04-20T00:16:38.544Z,15.20
2023-04-20T00:19:12.473Z,14.60
2023-04-20T00:21:46.724Z,14.80
2023-04-20T00:24:20.335Z,16.20
2023-04-20T00:26:55.291Z,16.40
2023-04-20T00:29:29.027Z,14.70
2023-04-20T00:32:04.584Z,16.80
2023-04-20T00:34:38.227Z,14.90
2023-04-20T00:37:25.976Z,13.90
2023-04-20T00:42:40.990Z,14.10
2023-04-20T00:45:15.984Z,14.30
2023-04-20T00:47:50.342Z,14.70
2023-04-20T00:50:24.547Z,16.10
2023-04-20T00:52:58.412Z,14.00
2023-04-20T00:55:33.689Z,14.70
2023-04-20T00:58:07.899Z,14.70
2023-04-20T01:00:42.187Z,15.80
2023-04-20T01:03:17.256Z,13.00
2023-04-20T01:05:53.337Z,13.90
2023-04-20T01:08:31.640Z,13.20
2023-04-20T01:11:05.426Z,14.90
2023-04-20T01:13:39.214Z,14.80
2023-04-20T01:16:13.087Z,13.90
2023-04-20T01:18:48.666Z,14.30
2023-04-20T01:21:24.208Z,15.20
2023-04-20T01:23:59.087Z,16.00
2023-04-20T01:26:33.238Z,15.40
2023-04-20T01:29:06.859Z,13.70
2023-04-20T01:31:40.775Z,14.40
2023-04-20T01:34:15.588Z,15.60
2023-04-20T01:36:49.495Z,13.80
2023-04-20T01:39:23.216Z,13.30
2023-04-20T01:41:56.901Z,14.20
2023-04-20T01:44:31.749Z,16.20
2023-04-20T01:47:06.638Z,15.20
2023-04-20T01:49:47.861Z,16.00
2023-04-20T01:52:21.758Z,15.50
2023-04-20T01:54:55.705Z,14.10
2023-04-20T01:57:31.578Z,14.60
2023-04-20T02:00:05.896Z,15.40
2023-04-20T02:02:48.020Z,14.40
2023-04-20T02:05:22.810Z,14.80
2023-04-20T02:07:57.111Z,16.50
2023-04-20T02:10:31.031Z,14.50
2023-04-20T02:13:05.203Z,16.50
2023-04-20T02:15:39.152Z,15.50
2023-04-20T02:18:13.023Z,19.20
2023-04-20T02:20:47.428Z,16.00
2023-04-20T02:23:21.142Z,17.00
2023-04-20T02:25:55.254Z,15.40
2023-04-20T02:28:28.989Z,14.30
2023-04-20T02:31:02.601Z,13.80
2023-04-20T02:33:36.620Z,15.50
2023-04-20T02:36:11.738Z,16.80
2023-04-20T02:38:47.147Z,16.30
2023-04-20T02:41:20.983Z,16.20
2023-04-20T02:43:55.028Z,14.70
2023-04-20T02:46:28.847Z,13.60
2023-04-20T02:49:03.933Z,16.70
2023-04-20T02:51:38.758Z,14.50
2023-04-20T02:54:12.535Z,14.90
2023-04-20T02:56:46.462Z,16.30
2023-04-20T02:59:20.251Z,18.40
2023-04-20T03:02:13.436Z,16.20
2023-04-20T03:04:49.141Z,15.70
2023-04-20T03:07:26.518Z,16.20
2023-04-20T03:10:03.878Z,14.50
2023-04-20T03:13:03.673Z,15.10
2023-04-20T03:15:42.401Z,14.70
2023-04-20T03:18:36.863Z,16.20
2023-04-20T03:21:10.623Z,16.10
2023-04-20T03:23:44.843Z,16.30
2023-04-20T03:26:19.149Z,17.30
2023-04-20T03:29:02.427Z,14.80
2023-04-20T03:31:43.736Z,14.80
2023-04-20T03:34:17.506Z,15.50
2023-04-20T03:36:52.020Z,16.90
2023-04-20T03:39:25.699Z,18.50
2023-04-20T03:41:59.641Z,14.70
2023-04-20T03:44:33.342Z,15.90
2023-04-20T03:47:06.982Z,14.80
2023-04-20T03:49:41.064Z,16.10
2023-04-20T03:52:15.314Z,16.90
2023-04-20T03:54:49.063Z,17.00
2023-04-20T03:57:23.561Z,24.60
2023-04-20T03:59:57.487Z,16.50
2023-04-20T04:02:32.485Z,15.50
2023-04-20T04:05:08.034Z,14.40
2023-04-20T04:07:42.175Z,18.10
2023-04-20T04:10:18.254Z,19.30
2023-04-20T04:12:52.099Z,16.00
2023-04-20T04:15:25.818Z,17.30
2023-04-20T04:18:06.050Z,16.40
2023-04-20T04:20:40.368Z,16.30
2023-04-20T04:23:15.716Z,17.10
2023-04-20T04:25:53.127Z,15.50
2023-04-20T04:28:30.213Z,15.80
2023-04-20T04:31:13.085Z,14.90
2023-04-20T04:33:47.067Z,15.90
2023-04-20T04:36:29.922Z,18.70
2023-04-20T04:39:31.859Z,16.80
2023-04-20T04:42:13.312Z,17.90
2023-04-20T04:44:49.284Z,17.80
2023-04-20T04:47:30.011Z,18.90
2023-04-20T04:50:06.215Z,17.20
2023-04-20T04:52:40.313Z,17.70
2023-04-20T04:55:16.268Z,19.40
2023-04-20T04:57:50.541Z,15.50
2023-04-20T05:00:25.703Z,17.80
2023-04-20T05:03:00.039Z,15.30
2023-04-20T05:05:33.808Z,18.70
2023-04-20T05:08:07.801Z,16.70
2023-04-20T05:10:41.865Z,17.70
2023-04-20T05:13:15.628Z,15.90
2023-04-20T05:15:49.214Z,17.50
2023-04-20T05:18:23.611Z,16.10
2023-04-20T05:20:57.870Z,17.30
2023-04-20T05:23:31.715Z,21.40
2023-04-20T05:26:05.835Z,17.80
2023-04-20T05:28:43.163Z,15.60
2023-04-20T05:31:16.935Z,19.40
2023-04-20T05:33:50.725Z,20.10
2023-04-20T05:36:24.476Z,15.30
2023-04-20T05:38:58.222Z,15.80
2023-04-20T05:41:32.168Z,15.20
2023-04-20T05:44:05.918Z,19.60
2023-04-20T05:46:39.701Z,19.10
2023-04-20T05:49:13.661Z,18.30
2023-04-20T05:51:47.675Z,15.80
2023-04-20T05:54:21.692Z,17.20
2023-04-20T05:56:55.654Z,17.50
2023-04-20T05:59:30.289Z,17.80
2023-04-20T06:02:03.934Z,20.10
2023-04-20T06:04:38.868Z,15.60
2023-04-20T06:07:12.916Z,15.00
2023-04-20T06:09:46.374Z,16.00
2023-04-20T06:12:20.786Z,15.10
2023-04-20T06:14:55.020Z,17.40
2023-04-20T06:17:28.686Z,17.80
2023-04-20T06:20:02.482Z,18.20
2023-04-20T06:22:36.602Z,20.30
2023-04-20T06:25:11.841Z,15.20
2023-04-20T06:27:45.680Z,19.50
2023-04-20T06:30:20.061Z,16.00
2023-04-20T06:32:53.941Z,17.70
2023-04-20T06:35:28.024Z,16.00
2023-04-20T06:38:02.857Z,15.50
2023-04-20T06:40:36.644Z,12.50
2023-04-20T06:43:10.740Z,16.70
2023-04-20T06:45:44.372Z,14.10
2023-04-20T06:48:31.650Z,15.40
2023-04-20T06:51:17.560Z,13.90
2023-04-20T06:53:52.002Z,14.10
2023-04-20T06:56:25.937Z,13.90
2023-04-20T06:58:59.541Z,15.80
2023-04-20T07:01:33.429Z,15.10
2023-04-20T07:04:07.349Z,16.60
2023-04-20T07:06:41.650Z,15.80
2023-04-20T07:09:15.564Z,18.90
2023-04-20T07:12:09.709Z,14.60
2023-04-20T07:14:44.164Z,15.80
2023-04-20T07:17:31.050Z,13.70
2023-04-20T07:20:07.725Z,13.00
2023-04-20T07:22:42.113Z,18.90
2023-04-20T07:25:15.690Z,14.30
2023-04-20T07:27:49.451Z,16.10
2023-04-20T07:30:23.122Z,13.40
2023-04-20T07:32:56.868Z,16.20
2023-04-20T07:35:30.819Z,13.10
2023-04-20T07:38:04.420Z,14.10
2023-04-20T07:40:38.441Z,15.70
2023-04-20T07:43:12.169Z,15.20
2023-04-20T07:45:46.289Z,15.00
2023-04-20T07:48:19.723Z,13.40
2023-04-20T07:50:53.388Z,15.80
2023-04-20T07:53:27.253Z,18.60
2023-04-20T07:56:01.525Z,16.10
2023-04-20T07:58:35.386Z,13.40
2023-04-20T08:01:09.229Z,18.50
2023-04-20T08:03:43.391Z,17.70
2023-04-20T08:06:17.439Z,17.40
2023-04-20T08:08:50.938Z,14.20
2023-04-20T08:11:25.458Z,15.40
2023-04-20T08:13:59.115Z,20.00
2023-04-20T08:16:33.088Z,15.40
2023-04-20T08:19:10.820Z,14.00
2023-04-20T08:24:17.366Z,14.40
2023-04-20T08:26:51.693Z,18.40
2023-04-20T08:29:25.226Z,17.20
2023-04-20T08:31:59.037Z,15.50
2023-04-20T08:34:32.962Z,13.20
2023-04-20T08:37:07.691Z,16.30
2023-04-20T08:39:41.746Z,16.20
2023-04-20T08:42:17.324Z,17.40
2023-04-20T08:45:12.742Z,11.50
2023-04-20T08:47:46.880Z,19.80
2023-04-20T08:50:22.576Z,16.80
2023-04-20T08:52:57.036Z,15.90
2023-04-20T08:55:39.938Z,12.90
2023-04-20T08:58:13.929Z,12.70
2023-04-20T09:00:51.572Z,15.10
2023-04-20T09:03:37.181Z,14.20
2023-04-20T09:06:18.280Z,11.00
2023-04-20T09:08:52.453Z,11.20
2023-04-20T09:11:30.600Z,13.10
2023-04-20T09:14:07.294Z,14.10
2023-04-20T09:16:50.743Z,13.90
2023-04-20T09:19:28.526Z,12.10
2023-04-20T09:22:05.546Z,13.80
2023-04-20T09:24:41.207Z,11.30
2023-04-20T09:27:23.054Z,10.70
2023-04-20T09:30:04.241Z,12.00
2023-04-20T09:32:38.089Z,13.70
2023-04-20T09:35:13.150Z,9.90
2023-04-20T09:37:52.818Z,11.20
2023-04-20T09:40:30.409Z,13.60
2023-04-20T09:43:11.953Z,10.70
2023-04-20T09:45:47.951Z,9.00
2023-04-20T09:48:22.608Z,11.20
2023-04-20T09:50:57.180Z,13.70
2023-04-20T09:53:32.717Z,12.10
2023-04-20T09:56:10.319Z,7.40
2023-04-20T09:58:44.907Z,10.20
2023-04-20T10:01:18.977Z,10.20
2023-04-20T10:03:54.586Z,11.10
2023-04-20T10:06:38.611Z,10.10
2023-04-20T10:09:22.578Z,13.70
2023-04-20T10:12:07.156Z,8.00
2023-04-20T10:14:41.400Z,11.00
2023-04-20T10:17:15.269Z,7.70
2023-04-20T10:19:49.739Z,10.70
2023-04-20T10:22:34.377Z,10.80
2023-04-20T10:25:20.840Z,11.90
2023-04-20T10:27:59.554Z,10.20
2023-04-20T10:30:34.124Z,8.50
2023-04-20T10:33:12.268Z,7.70
2023-04-20T10:35:48.800Z,11.50
2023-04-20T10:38:34.099Z,10.80
2023-04-20T10:41:11.555Z,7.60
2023-04-20T10:43:45.416Z,11.60
2023-04-20T10:46:24.076Z,8.80
2023-04-20T10:48:59.373Z,7.90
2023-04-20T10:51:33.468Z,8.10
2023-04-20T10:54:11.789Z,8.50
2023-04-20T10:56:46.983Z,8.30
2023-04-20T10:59:22.556Z,8.00
2023-04-20T11:01:56.941Z,6.90
2023-04-20T11:04:37.500Z,11.20
2023-04-20T11:07:14.173Z,6.90
2023-04-20T11:09:55.544Z,6.20
2023-04-20T11:12:41.903Z,6.70
2023-04-20T11:15:16.730Z,7.70
2023-04-20T11:17:50.216Z,6.80
2023-04-20T11:20:23.795Z,8.10
2023-04-20T11:23:01.421Z,10.90
2023-04-20T11:25:53.012Z,7.70
2023-04-20T11:28:31.099Z,7.20
2023-04-20T11:31:05.679Z,10.20
2023-04-20T11:33:39.579Z,8.40
2023-04-20T11:36:22.659Z,7.90
2023-04-20T11:38:56.316Z,8.20
2023-04-20T11:41:42.780Z,9.30
2023-04-20T11:44:21.313Z,6.40
2023-04-20T11:46:57.735Z,6.30
2023-04-20T11:49:32.454Z,9.40
2023-04-20T11:52:06.890Z,9.40
2023-04-20T11:54:41.831Z,7.50
2023-04-20T11:57:15.609Z,8.80
2023-04-20T11:59:49.646Z,7.50
2023-04-20T12:02:23.917Z,9.30
2023-04-20T12:04:58.153Z,8.10
2023-04-20T12:07:32.005Z,8.00
2023-04-20T12:10:05.758Z,8.90
2023-04-20T12:12:39.550Z,6.00
2023-04-20T12:15:14.490Z,8.00
2023-04-20T12:17:48.621Z,9.10
2023-04-20T12:20:22.272Z,7.80
2023-04-20T12:22:57.228Z,7.30
2023-04-20T12:25:33.018Z,8.00
2023-04-20T12:28:27.391Z,9.30
2023-04-20T12:31:01.289Z,10.50
2023-04-20T12:33:37.855Z,9.20
2023-04-20T12:36:12.340Z,8.50
2023-04-20T12:38:48.343Z,12.00
2023-04-20T12:41:23.218Z,11.10
2023-04-20T12:43:57.093Z,9.10
2023-04-20T12:46:30.880Z,14.40
2023-04-20T12:49:04.822Z,8.60
2023-04-20T12:51:38.825Z,9.70
2023-04-20T12:54:13.040Z,8.60
2023-04-20T12:56:47.055Z,6.00
2023-04-20T12:59:21.036Z,6.80
2023-04-20T13:01:54.534Z,7.50
2023-04-20T13:04:29.535Z,9.20
2023-04-20T13:07:03.358Z,10.10
2023-04-20T13:09:37.664Z,11.00
2023-04-20T13:12:11.742Z,8.60
2023-04-20T13:14:45.164Z,7.80
2023-04-20T13:17:19.090Z,8.90
2023-04-20T13:19:53.587Z,9.40
2023-04-20T13:22:27.371Z,7.00
2023-04-20T13:25:01.162Z,13.20
2023-04-20T13:27:34.782Z,8.80
2023-04-20T13:30:10.422Z,10.00
2023-04-20T13:32:44.273Z,9.20
2023-04-20T13:35:18.366Z,13.80
2023-04-20T13:37:52.119Z,12.40
2023-04-20T13:40:26.080Z,14.30
2023-04-20T13:42:59.828Z,9.50
2023-04-20T13:45:33.872Z,11.30
2023-04-20T13:48:07.427Z,11.20
2023-04-20T13:50:41.158Z,10.60
2023-04-20T13:53:14.825Z,10.60
2023-04-20T13:55:49.054Z,10.40
2023-04-20T13:58:22.895Z,7.80
2023-04-20T14:00:56.761Z,6.90
2023-04-20T14:03:30.785Z,10.20
2023-04-20T14:06:04.695Z,10.20
2023-04-20T14:08:38.498Z,9.20
2023-04-20T14:11:11.929Z,9.10
2023-04-20T14:13:46.080Z,9.60
2023-04-20T14:16:23.205Z,13.60
2023-04-20T14:18:57.180Z,12.30
2023-04-20T14:21:30.715Z,11.70
2023-04-20T14:24:05.009Z,9.20
2023-04-20T14:26:38.887Z,9.10
2023-04-20T14:29:12.690Z,10.40
2023-04-20T14:31:46.313Z,9.70
2023-04-20T14:34:20.326Z,11.90
2023-04-20T14:36:54.138Z,10.00
2023-04-20T14:39:27.779Z,9.70
2023-04-20T14:42:02.103Z,9.90
2023-04-20T14:44:35.829Z,9.10
2023-04-20T14:47:10.104Z,11.10
2023-04-20T14:49:44.883Z,7.80
2023-04-20T14:52:19.106Z,19.70
2023-04-20T14:54:52.892Z,8.20
2023-04-20T14:57:26.476Z,9.30
2023-04-20T15:00:00.045Z,10.30
2023-04-20T15:02:34.440Z,11.00
2023-04-20T15:05:11.207Z,9.60
2023-04-20T15:07:46.363Z,9.80
2023-04-20T15:10:21.397Z,10.30
2023-04-20T15:12:54.995Z,10.80
2023-04-20T15:15:41.584Z,10.90
2023-04-20T15:18:22.473Z,11.50
2023-04-20T15:20:56.686Z,11.90
2023-04-20T15:23:30.226Z,16.00
2023-04-20T15:26:04.273Z,11.60
2023-04-20T15:28:38.204Z,11.30
2023-04-20T15:31:12.393Z,12.30
2023-04-20T15:33:48.624Z,10.90
2023-04-20T15:36:23.037Z,9.10
2023-04-20T15:38:57.954Z,8.90
2023-04-20T15:44:07.361Z,8.70
2023-04-20T15:46:41.931Z,9.30
2023-04-20T15:49:16.555Z,9.60
2023-04-20T15:51:50.585Z,10.30
2023-04-20T15:54:33.240Z,11.30
2023-04-20T15:57:07.065Z,11.90
2023-04-20T15:59:41.267Z,13.30
2023-04-20T16:02:15.155Z,14.70
2023-04-20T16:04:49.665Z,9.40
2023-04-20T16:07:25.874Z,12.50
2023-04-20T16:09:59.845Z,13.00
2023-04-20T16:12:33.495Z,12.80
2023-04-20T16:15:08.760Z,9.60
2023-04-20T16:17:42.705Z,9.80
2023-04-20T16:20:16.753Z,14.00
2023-04-20T16:22:50.778Z,9.50
2023-04-20T16:25:25.976Z,11.90
2023-04-20T16:27:59.685Z,13.00
2023-04-20T16:30:34.124Z,12.20
2023-04-20T16:33:08.036Z,10.80
2023-04-20T16:35:41.886Z,11.20
2023-04-20T16:38:15.676Z,11.40
2023-04-20T16:40:49.471Z,12.50
2023-04-20T16:43:23.537Z,12.10
2023-04-20T16:45:57.246Z,10.90
2023-04-20T16:48:30.764Z,11.20
2023-04-20T16:51:04.346Z,11.00
2023-04-20T16:53:38.174Z,10.70
2023-04-20T16:56:12.820Z,14.00
2023-04-20T16:58:47.422Z,9.60
2023-04-20T17:01:20.980Z,14.70
2023-04-20T17:03:54.649Z,10.60
2023-04-20T17:06:28.711Z,11.80
2023-04-20T17:09:07.662Z,13.30
2023-04-20T17:11:41.500Z,11.60
2023-04-20T17:14:15.211Z,16.10
2023-04-20T17:16:49.070Z,11.40
2023-04-20T17:19:23.150Z,13.20
2023-04-20T17:21:57.230Z,12.70
2023-04-20T17:24:30.946Z,12.10
2023-04-20T17:27:04.963Z,16.10
2023-04-20T17:29:38.914Z,19.00
2023-04-20T17:32:37.176Z,14.70
2023-04-20T17:35:32.311Z,12.20
2023-04-20T17:38:33.100Z,16.10
2023-04-20T17:41:21.699Z,15.00
2023-04-20T17:43:56.320Z,11.80
2023-04-20T17:46:32.971Z,13.40
2023-04-20T17:49:07.503Z,13.50
2023-04-20T17:51:41.340Z,15.90
2023-04-20T17:54:14.972Z,13.00
2023-04-20T17:56:49.007Z,13.30
2023-04-20T17:59:27.821Z,13.70
2023-04-20T18:02:02.304Z,14.20
2023-04-20T18:04:37.864Z,16.30
2023-04-20T18:07:13.708Z,14.20
2023-04-20T18:09:48.841Z,14.00
2023-04-20T18:12:23.304Z,13.40
2023-04-20T18:15:04.595Z,14.30
2023-04-20T18:17:40.157Z,19.70
2023-04-20T18:20:14.786Z,16.60
2023-04-20T18:22:52.354Z,16.00
2023-04-20T18:25:27.306Z,15.20
2023-04-20T18:28:03.989Z,22.70
2023-04-20T18:30:39.008Z,17.40
2023-04-20T18:33:15.720Z,17.20
2023-04-20T18:35:50.095Z,18.00
2023-04-20T18:38:25.688Z,16.70
2023-04-20T18:41:03.018Z,18.60
2023-04-20T18:43:38.788Z,15.00
2023-04-20T18:46:16.833Z,15.70
2023-04-20T18:48:51.710Z,14.20
2023-04-20T18:51:39.834Z,15.80
2023-04-20T18:54:18.162Z,14.60
2023-04-20T18:57:01.681Z,17.00
2023-04-20T18:59:40.393Z,15.20
2023-04-20T19:02:18.322Z,14.30
2023-04-20T19:04:54.730Z,17.80
2023-04-20T19:07:38.355Z,16.00
2023-04-20T19:10:16.313Z,18.00
2023-04-20T19:12:52.982Z,13.10
2023-04-20T19:15:41.617Z,19.30
2023-04-20T19:18:18.838Z,16.70
2023-04-20T19:20:53.915Z,16.60
2023-04-20T19:23:37.184Z,14.90
2023-04-20T19:26:13.594Z,13.50
2023-04-20T19:28:49.729Z,15.00
2023-04-20T19:31:25.869Z,15.60
2023-04-20T19:34:01.553Z,18.50
2023-04-20T19:36:37.826Z,19.00
2023-04-20T19:39:13.162Z,18.30
2023-04-20T19:41:55.403Z,19.30
2023-04-20T19:44:33.059Z,19.00
2023-04-20T19:47:19.321Z,16.80
2023-04-20T19:49:56.697Z,20.70
2023-04-20T19:52:32.855Z,18.90
2023-04-20T19:55:12.835Z,16.80
2023-04-20T20:00:24.710Z,16.00
2023-04-20T20:03:00.199Z,17.30
2023-04-20T20:05:35.535Z,15.50
2023-04-20T20:08:09.972Z,18.60
2023-04-20T20:10:44.316Z,18.10
2023-04-20T20:13:18.672Z,15.80
2023-04-20T20:16:13.606Z,17.80
2023-04-20T20:18:49.180Z,17.20
2023-04-20T20:21:25.622Z,19.40
2023-04-20T20:23:59.661Z,17.20
2023-04-20T20:26:34.306Z,16.90
2023-04-20T20:29:08.009Z,15.70
2023-04-20T20:31:42.329Z,21.40
2023-04-20T20:34:16.798Z,17.10
2023-04-20T20:36:51.735Z,21.00
2023-04-20T20:39:25.345Z,14.20
2023-04-20T20:42:00.153Z,17.30
2023-04-20T20:44:34.627Z,18.70
2023-04-20T20:47:09.036Z,16.80
2023-04-20T20:49:42.732Z,20.70
2023-04-20T20:52:16.654Z,17.10
2023-04-20T20:54:50.571Z,16.20
2023-04-20T20:57:24.828Z,18.80
2023-04-20T20:59:58.445Z,16.50
2023-04-20T21:02:32.425Z,20.60
2023-04-20T21:05:07.370Z,16.90
2023-04-20T21:07:41.904Z,16.50
2023-04-20T21:10:16.219Z,17.30
2023-04-20T21:12:50.109Z,16.60
2023-04-20T21:15:24.093Z,19.00
2023-04-20T21:18:01.090Z,20.20
2023-04-20T21:20:35.193Z,15.20
2023-04-20T21:23:09.330Z,18.20
2023-04-20T21:25:43.322Z,18.70
2023-04-20T21:28:17.478Z,16.40
2023-04-20T21:30:51.355Z,16.70
2023-04-20T21:33:28.072Z,17.10
2023-04-20T21:36:01.990Z,16.30
2023-04-20T21:38:36.250Z,18.70
2023-04-20T21:41:09.949Z,15.00
2023-04-20T21:43:43.937Z,15.00
2023-04-20T21:46:19.453Z,16.60
2023-04-20T21:48:53.845Z,16.90
2023-04-20T21:51:28.147Z,16.90
2023-04-20T21:54:02.108Z,15.50
2023-04-20T21:56:36.193Z,20.70
2023-04-20T21:59:10.122Z,16.10
2023-04-20T22:01:43.959Z,15.60
2023-04-20T22:04:18.430Z,18.80
2023-04-20T22:06:53.764Z,17.00
2023-04-20T22:09:27.821Z,16.50
2023-04-20T22:12:02.344Z,14.40
2023-04-20T22:14:36.061Z,14.20
2023-04-20T22:17:14.774Z,15.90
2023-04-20T22:19:48.878Z,15.20
2023-04-20T22:22:22.778Z,15.40
2023-04-20T22:24:56.694Z,16.60
2023-04-20T22:27:30.684Z,13.70
2023-04-20T22:30:04.798Z,15.40
2023-04-20T22:32:39.067Z,14.20
2023-04-20T22:35:13.223Z,17.20
2023-04-20T22:37:46.876Z,16.90
2023-04-20T22:40:20.682Z,15.10
2023-04-20T22:42:54.223Z,15.60
2023-04-20T22:45:27.697Z,15.40
2023-04-20T22:48:01.940Z,14.30
2023-04-20T22:50:36.323Z,16.50
2023-04-20T22:53:10.527Z,13.80
2023-04-20T22:55:44.409Z,16.20
2023-04-20T22:58:17.849Z,15.20
2023-04-20T23:00:52.058Z,15.60
2023-04-20T23:03:26.433Z,15.20
2023-04-20T23:06:00.092Z,24.50
2023-04-20T23:08:35.095Z,14.50
2023-04-20T23:11:08.821Z,16.50
2023-04-20T23:13:42.908Z,15.50
2023-04-20T23:16:16.896Z,13.20
2023-04-20T23:18:50.609Z,14.10
2023-04-20T23:21:24.693Z,15.70
2023-04-20T23:23:59.941Z,14.90
2023-04-20T23:26:33.971Z,21.40
2023-04-20T23:29:07.900Z,17.10
2023-04-20T23:31:41.843Z,14.10
2023-04-20T23:34:15.867Z,16.10
2023-04-20T23:36:49.191Z,13.80
2023-04-20T23:39:23.547Z,14.40
2023-04-20T23:41:58.159Z,13.80
2023-04-20T23:44:31.727Z,15.20
2023-04-20T23:47:05.568Z,15.40
2023-04-20T23:49:39.448Z,16.70
2023-04-20T23:52:13.419Z,19.70
2023-04-20T23:54:47.813Z,16.80
2023-04-20T23:57:21.333Z,14.30
2023-04-20T23:59:54.796Z,17.10
